SEH7DF LGSA-LGKO
Flight info
| Callsign | SEH7DF |
|---|---|
| Flight time | 0h 35m |
| Altitude | 21000 |
| Route | BAVES J65 IRA V57 LABUX L41 GILOS |
| Aircraft | A21N/M-SDE2E3FGHIRWXY/LB1 |
Departure
| Time | 2026-04-28 15:25 |
|---|---|
| Airport | Chania International Airport (LGSA) |
Arrival
| Time | 2026-04-28 16:01 |
|---|---|
| Airport | Kos International Airport "Ippokratis" (LGKO) |
| Time | Latitude | Longitude | Altitude | Speed | Heading |
|---|---|---|---|---|---|
| 2026-04-28 14:40 | 35.53902 | 24.13950 | 503 ft | 0 kts | 21° |
| 2026-04-28 14:49 | 35.53901 | 24.13950 | 503 ft | 0 kts | 21° |
| 2026-04-28 14:51 | 35.53901 | 24.13949 | 503 ft | 0 kts | 21° |
| 2026-04-28 15:10 | 35.53900 | 24.13949 | 503 ft | 0 kts | 21° |
| 2026-04-28 15:15 | 35.53886 | 24.13942 | 503 ft | 4 kts | 22° |
| 2026-04-28 15:15 | 35.53861 | 24.13930 | 503 ft | 4 kts | 20° |
| 2026-04-28 15:15 | 35.53836 | 24.13922 | 503 ft | 4 kts | 357° |
| 2026-04-28 15:15 | 35.53820 | 24.13929 | 503 ft | 2 kts | 292° |
| 2026-04-28 15:16 | 35.53818 | 24.13935 | 503 ft | 1 kts | 292° |
| 2026-04-28 15:21 | 35.53819 | 24.13934 | 503 ft | 1 kts | 292° |
| 2026-04-28 15:21 | 35.53825 | 24.13914 | 503 ft | 4 kts | 292° |
| 2026-04-28 15:21 | 35.53839 | 24.13871 | 503 ft | 5 kts | 291° |
| 2026-04-28 15:22 | 35.53821 | 24.13828 | 503 ft | 8 kts | 223° |
| 2026-04-28 15:22 | 35.53765 | 24.13792 | 503 ft | 10 kts | 206° |
| 2026-04-28 15:22 | 35.53769 | 24.13704 | 504 ft | 12 kts | 294° |
| 2026-04-28 15:22 | 35.53805 | 24.13602 | 503 ft | 14 kts | 294° |
| 2026-04-28 15:23 | 35.53821 | 24.13520 | 503 ft | 8 kts | 234° |
| 2026-04-28 15:23 | 35.53765 | 24.13482 | 503 ft | 10 kts | 201° |
| 2026-04-28 15:23 | 35.53696 | 24.13450 | 503 ft | 7 kts | 198° |
| 2026-04-28 15:23 | 35.53662 | 24.13467 | 503 ft | 7 kts | 118° |
| 2026-04-28 15:24 | 35.53658 | 24.13478 | 504 ft | 0 kts | 114° |
| 2026-04-28 15:24 | 35.53655 | 24.13485 | 504 ft | 8 kts | 113° |
| 2026-04-28 15:25 | 35.53571 | 24.13746 | 505 ft | 67 kts | 111° |
| 2026-04-28 15:25 | 35.53319 | 24.14524 | 502 ft | 127 kts | 113° |
| 2026-04-28 15:25 | 35.52931 | 24.15705 | 635 ft | 154 kts | 111° |
| 2026-04-28 15:25 | 35.52555 | 24.16824 | 1368 ft | 142 kts | 111° |
| 2026-04-28 15:26 | 35.52153 | 24.17985 | 2059 ft | 150 kts | 110° |
| 2026-04-28 15:26 | 35.51727 | 24.19195 | 2544 ft | 162 kts | 110° |
| 2026-04-28 15:26 | 35.51252 | 24.20542 | 2963 ft | 183 kts | 110° |
| 2026-04-28 15:26 | 35.50769 | 24.22059 | 3517 ft | 197 kts | 103° |
| 2026-04-28 15:27 | 35.50544 | 24.23725 | 4183 ft | 204 kts | 90° |
| 2026-04-28 15:27 | 35.50562 | 24.25489 | 4922 ft | 210 kts | 82° |
| 2026-04-28 15:27 | 35.50502 | 24.27320 | 5632 ft | 223 kts | 98° |
| 2026-04-28 15:27 | 35.50154 | 24.29294 | 6048 ft | 248 kts | 96° |
| 2026-04-28 15:28 | 35.49838 | 24.31477 | 6506 ft | 269 kts | 96° |
| 2026-04-28 15:28 | 35.49480 | 24.33748 | 7165 ft | 278 kts | 97° |
| 2026-04-28 15:28 | 35.49088 | 24.36090 | 7974 ft | 282 kts | 98° |
| 2026-04-28 15:28 | 35.48679 | 24.38469 | 8833 ft | 286 kts | 99° |
| 2026-04-28 15:29 | 35.48255 | 24.40878 | 9696 ft | 290 kts | 99° |
| 2026-04-28 15:29 | 35.47821 | 24.43304 | 10363 ft | 301 kts | 99° |
| 2026-04-28 15:29 | 35.47355 | 24.45911 | 10716 ft | 322 kts | 100° |
| 2026-04-28 15:29 | 35.46854 | 24.48688 | 11019 ft | 344 kts | 100° |
| 2026-04-28 15:30 | 35.46314 | 24.51648 | 11303 ft | 365 kts | 101° |
| 2026-04-28 15:30 | 35.45744 | 24.54769 | 11680 ft | 380 kts | 101° |
| 2026-04-28 15:30 | 35.45166 | 24.57923 | 12326 ft | 386 kts | 101° |
| 2026-04-28 15:30 | 35.44575 | 24.61155 | 13014 ft | 390 kts | 101° |
| 2026-04-28 15:31 | 35.44110 | 24.64453 | 13678 ft | 394 kts | 91° |
| 2026-04-28 15:31 | 35.44396 | 24.67792 | 14254 ft | 395 kts | 73° |
| 2026-04-28 15:31 | 35.45340 | 24.70962 | 14823 ft | 397 kts | 65° |
| 2026-04-28 15:31 | 35.46401 | 24.74070 | 15393 ft | 401 kts | 65° |
| 2026-04-28 15:32 | 35.47472 | 24.77258 | 15954 ft | 405 kts | 65° |
| 2026-04-28 15:32 | 35.48215 | 24.79544 | 16349 ft | 408 kts | 66° |
| 2026-04-28 15:32 | 35.48536 | 24.80542 | 16519 ft | 409 kts | 66° |
| 2026-04-28 15:32 | 35.49573 | 24.83817 | 17070 ft | 413 kts | 66° |
| 2026-04-28 15:33 | 35.50598 | 24.87078 | 17600 ft | 417 kts | 66° |
| 2026-04-28 15:33 | 35.51653 | 24.90415 | 18151 ft | 420 kts | 66° |
| 2026-04-28 15:33 | 35.52716 | 24.93784 | 18663 ft | 423 kts | 66° |
| 2026-04-28 15:33 | 35.53786 | 24.97176 | 19150 ft | 426 kts | 66° |
| 2026-04-28 15:34 | 35.54847 | 25.00548 | 19613 ft | 429 kts | 66° |
| 2026-04-28 15:34 | 35.55923 | 25.03984 | 20046 ft | 433 kts | 66° |
| 2026-04-28 15:34 | 35.57007 | 25.07455 | 20512 ft | 436 kts | 66° |
| 2026-04-28 15:34 | 35.58098 | 25.10948 | 20917 ft | 440 kts | 66° |
| 2026-04-28 15:35 | 35.59200 | 25.14470 | 21083 ft | 441 kts | 66° |
| 2026-04-28 15:35 | 35.61397 | 25.21517 | 21089 ft | 441 kts | 66° |
| 2026-04-28 15:35 | 35.62485 | 25.25006 | 21076 ft | 441 kts | 66° |
| 2026-04-28 15:36 | 35.63583 | 25.28535 | 21065 ft | 441 kts | 66° |
| 2026-04-28 15:36 | 35.64678 | 25.32066 | 21058 ft | 441 kts | 66° |
| 2026-04-28 15:36 | 35.65774 | 25.35601 | 21062 ft | 442 kts | 66° |
| 2026-04-28 15:36 | 35.66857 | 25.39100 | 21057 ft | 442 kts | 66° |
| 2026-04-28 15:37 | 35.67950 | 25.42636 | 21054 ft | 442 kts | 66° |
| 2026-04-28 15:37 | 35.69044 | 25.46181 | 21048 ft | 442 kts | 66° |
| 2026-04-28 15:37 | 35.70125 | 25.49727 | 21045 ft | 442 kts | 66° |
| 2026-04-28 15:37 | 35.70838 | 25.52077 | 21046 ft | 442 kts | 66° |
| 2026-04-28 15:38 | 35.72277 | 25.56781 | 21044 ft | 442 kts | 66° |
| 2026-04-28 15:38 | 35.73366 | 25.60326 | 21042 ft | 442 kts | 66° |
| 2026-04-28 15:38 | 35.74455 | 25.63868 | 21044 ft | 442 kts | 66° |
| 2026-04-28 15:38 | 35.75543 | 25.67406 | 21043 ft | 442 kts | 66° |
| 2026-04-28 15:39 | 35.76619 | 25.70913 | 21045 ft | 442 kts | 66° |
| 2026-04-28 15:39 | 35.77706 | 25.74463 | 21047 ft | 442 kts | 66° |
| 2026-04-28 15:39 | 35.78792 | 25.78020 | 21043 ft | 442 kts | 66° |
| 2026-04-28 15:39 | 35.79882 | 25.81584 | 21047 ft | 442 kts | 66° |
| 2026-04-28 15:40 | 35.80952 | 25.85090 | 21053 ft | 442 kts | 66° |
| 2026-04-28 15:40 | 35.82036 | 25.88649 | 21054 ft | 442 kts | 66° |
| 2026-04-28 15:40 | 35.83113 | 25.92198 | 21051 ft | 442 kts | 66° |
| 2026-04-28 15:40 | 35.84191 | 25.95751 | 21044 ft | 442 kts | 67° |
| 2026-04-28 15:41 | 35.85267 | 25.99300 | 21036 ft | 442 kts | 67° |
| 2026-04-28 15:41 | 35.86342 | 26.02850 | 21023 ft | 442 kts | 67° |
| 2026-04-28 15:41 | 35.87418 | 26.06407 | 21021 ft | 442 kts | 67° |
| 2026-04-28 15:41 | 35.88477 | 26.09912 | 21023 ft | 442 kts | 67° |
| 2026-04-28 15:42 | 35.89550 | 26.13470 | 21023 ft | 442 kts | 67° |
| 2026-04-28 15:42 | 35.90632 | 26.17041 | 21027 ft | 442 kts | 67° |
| 2026-04-28 15:42 | 35.91709 | 26.20602 | 21021 ft | 442 kts | 67° |
| 2026-04-28 15:42 | 35.92831 | 26.24076 | 21015 ft | 440 kts | 61° |
| 2026-04-28 15:43 | 35.94499 | 26.27211 | 21003 ft | 433 kts | 46° |
| 2026-04-28 15:43 | 35.96584 | 26.29810 | 20345 ft | 425 kts | 40° |
| 2026-04-28 15:43 | 35.98784 | 26.32290 | 19274 ft | 431 kts | 39° |
| 2026-04-28 15:43 | 36.01014 | 26.34792 | 18476 ft | 430 kts | 40° |
| 2026-04-28 15:44 | 36.03187 | 26.37261 | 17695 ft | 427 kts | 40° |
| 2026-04-28 15:44 | 36.05349 | 26.39743 | 16942 ft | 423 kts | 40° |
| 2026-04-28 15:44 | 36.07516 | 26.42237 | 16254 ft | 417 kts | 40° |
| 2026-04-28 15:44 | 36.09624 | 26.44665 | 15631 ft | 411 kts | 41° |
| 2026-04-28 15:45 | 36.11678 | 26.47031 | 15048 ft | 405 kts | 40° |
| 2026-04-28 15:45 | 36.13728 | 26.49384 | 14497 ft | 399 kts | 40° |
| 2026-04-28 15:45 | 36.15754 | 26.51715 | 13945 ft | 394 kts | 40° |
| 2026-04-28 15:45 | 36.17752 | 26.54021 | 13370 ft | 388 kts | 41° |
| 2026-04-28 15:46 | 36.19687 | 26.56268 | 12832 ft | 382 kts | 41° |
| 2026-04-28 15:46 | 36.21623 | 26.58509 | 12309 ft | 376 kts | 42° |
| 2026-04-28 15:46 | 36.23529 | 26.60717 | 11804 ft | 375 kts | 41° |
| 2026-04-28 15:46 | 36.25428 | 26.62918 | 11365 ft | 370 kts | 41° |
| 2026-04-28 15:47 | 36.27262 | 26.65040 | 11108 ft | 358 kts | 41° |
| 2026-04-28 15:47 | 36.29054 | 26.67111 | 10913 ft | 345 kts | 41° |
| 2026-04-28 15:47 | 36.30776 | 26.69113 | 10747 ft | 333 kts | 41° |
| 2026-04-28 15:47 | 36.32432 | 26.71055 | 10598 ft | 320 kts | 41° |
| 2026-04-28 15:48 | 36.34022 | 26.72911 | 10463 ft | 308 kts | 41° |
| 2026-04-28 15:48 | 36.35553 | 26.74700 | 10309 ft | 297 kts | 41° |
| 2026-04-28 15:48 | 36.37059 | 26.76451 | 10023 ft | 294 kts | 40° |
| 2026-04-28 15:48 | 36.38551 | 26.78179 | 9954 ft | 293 kts | 40° |
| 2026-04-28 15:49 | 36.40023 | 26.79890 | 9956 ft | 292 kts | 41° |
| 2026-04-28 15:49 | 36.41499 | 26.81609 | 9970 ft | 293 kts | 40° |
| 2026-04-28 15:49 | 36.42987 | 26.83342 | 9993 ft | 293 kts | 40° |
| 2026-04-28 15:49 | 36.44465 | 26.85067 | 9737 ft | 291 kts | 41° |
| 2026-04-28 15:50 | 36.45951 | 26.86802 | 9205 ft | 294 kts | 40° |
| 2026-04-28 15:50 | 36.47439 | 26.88538 | 8848 ft | 290 kts | 41° |
| 2026-04-28 15:50 | 36.48972 | 26.90171 | 8435 ft | 288 kts | 31° |
| 2026-04-28 15:50 | 36.50685 | 26.91350 | 8111 ft | 282 kts | 24° |
| 2026-04-28 15:51 | 36.52444 | 26.92423 | 7750 ft | 280 kts | 24° |
| 2026-04-28 15:51 | 36.54196 | 26.93495 | 7376 ft | 279 kts | 24° |
| 2026-04-28 15:51 | 36.55911 | 26.94558 | 7022 ft | 277 kts | 25° |
| 2026-04-28 15:51 | 36.57620 | 26.95652 | 6680 ft | 274 kts | 24° |
| 2026-04-28 15:52 | 36.59312 | 26.96741 | 6321 ft | 273 kts | 25° |
| 2026-04-28 15:52 | 36.60997 | 26.97842 | 5917 ft | 273 kts | 27° |
| 2026-04-28 15:52 | 36.62452 | 26.99345 | 5550 ft | 275 kts | 50° |
| 2026-04-28 15:52 | 36.63198 | 27.01502 | 5263 ft | 277 kts | 78° |
| 2026-04-28 15:53 | 36.63047 | 27.03843 | 5094 ft | 271 kts | 107° |
| 2026-04-28 15:53 | 36.62264 | 27.05943 | 4966 ft | 261 kts | 116° |
| 2026-04-28 15:53 | 36.61426 | 27.07869 | 4823 ft | 250 kts | 115° |
| 2026-04-28 15:53 | 36.60624 | 27.09730 | 4666 ft | 237 kts | 115° |
| 2026-04-28 15:54 | 36.60429 | 27.10188 | 4649 ft | 234 kts | 116° |
| 2026-04-28 15:54 | 36.59659 | 27.11964 | 4506 ft | 233 kts | 116° |
| 2026-04-28 15:54 | 36.58909 | 27.13768 | 4432 ft | 245 kts | 104° |
| 2026-04-28 15:54 | 36.58841 | 27.15935 | 4603 ft | 259 kts | 72° |
| 2026-04-28 15:55 | 36.59550 | 27.17870 | 4788 ft | 239 kts | 56° |
| 2026-04-28 15:55 | 36.60406 | 27.19605 | 4536 ft | 232 kts | 55° |
| 2026-04-28 15:55 | 36.61260 | 27.21258 | 4162 ft | 222 kts | 55° |
| 2026-04-28 15:55 | 36.62216 | 27.22693 | 3820 ft | 211 kts | 29° |
| 2026-04-28 15:56 | 36.63087 | 27.23173 | 3508 ft | 205 kts | 9° |
| 2026-04-28 15:56 | 36.64941 | 27.22955 | 2921 ft | 203 kts | 335° |
| 2026-04-28 15:56 | 36.66054 | 27.22003 | 2764 ft | 189 kts | 320° |
| 2026-04-28 15:56 | 36.67017 | 27.20913 | 2678 ft | 186 kts | 320° |
| 2026-04-28 15:57 | 36.67674 | 27.20220 | 2626 ft | 186 kts | 322° |
| 2026-04-28 15:57 | 36.68679 | 27.19211 | 2590 ft | 184 kts | 323° |
| 2026-04-28 15:57 | 36.69621 | 27.18280 | 2619 ft | 161 kts | 323° |
| 2026-04-28 15:57 | 36.70751 | 27.17196 | 2448 ft | 151 kts | 326° |
| 2026-04-28 15:58 | 36.71299 | 27.16683 | 2328 ft | 145 kts | 326° |
| 2026-04-28 15:58 | 36.72099 | 27.15923 | 2104 ft | 142 kts | 326° |
| 2026-04-28 15:58 | 36.72883 | 27.15186 | 1882 ft | 139 kts | 325° |
| 2026-04-28 15:58 | 36.73596 | 27.14512 | 1697 ft | 124 kts | 325° |
| 2026-04-28 15:59 | 36.74285 | 27.13862 | 1511 ft | 124 kts | 324° |
| 2026-04-28 15:59 | 36.74969 | 27.13208 | 1331 ft | 124 kts | 323° |
| 2026-04-28 15:59 | 36.75662 | 27.12559 | 1143 ft | 126 kts | 324° |
| 2026-04-28 15:59 | 36.75997 | 27.12246 | 1058 ft | 126 kts | 323° |
| 2026-04-28 16:00 | 36.76685 | 27.11553 | 887 ft | 127 kts | 317° |
| 2026-04-28 16:00 | 36.77329 | 27.10795 | 790 ft | 129 kts | 321° |
| 2026-04-28 16:00 | 36.78072 | 27.10182 | 527 ft | 128 kts | 327° |
| 2026-04-28 16:00 | 36.78821 | 27.09605 | 409 ft | 117 kts | 327° |
| 2026-04-28 16:01 | 36.79350 | 27.09196 | 418 ft | 59 kts | 328° |
| 2026-04-28 16:01 | 36.79625 | 27.08991 | 423 ft | 27 kts | 347° |
| 2026-04-28 16:01 | 36.79818 | 27.08993 | 413 ft | 27 kts | 1° |
| 2026-04-28 16:01 | 36.79946 | 27.08977 | 421 ft | 18 kts | 351° |
| 2026-04-28 16:02 | 36.80035 | 27.08907 | 421 ft | 12 kts | 319° |
| 2026-04-28 16:02 | 36.80087 | 27.08863 | 424 ft | 5 kts | 326° |
| 2026-04-28 16:02 | 36.80113 | 27.08842 | 421 ft | 2 kts | 332° |
| 2026-04-28 16:02 | 36.80133 | 27.08831 | 415 ft | 4 kts | 358° |
| 2026-04-28 16:03 | 36.80159 | 27.08859 | 424 ft | 6 kts | 50° |
| 2026-04-28 16:03 | 36.80173 | 27.08886 | 424 ft | 1 kts | 58° |
| 2026-04-28 16:03 | 36.80176 | 27.08893 | 422 ft | 0 kts | 58° |
| 2026-04-28 16:08 | 36.80176 | 27.08892 | 422 ft | 0 kts | 58° |
| 2026-04-28 16:17 | 36.80175 | 27.08892 | 422 ft | 0 kts | 58° |
| 2026-04-28 16:17 | 36.80175 | 27.08891 | 422 ft | 0 kts | 58° |